sensor_id;sensor_type;location;lat;lon;timestamp;P1;durP1;ratioP1;P2;durP2;ratioP2
3052;SDS011;1536;51.098;6.414;2022-08-19T00:00:46;9.97;;;9.17;;
3052;SDS011;1536;51.098;6.414;2022-08-19T00:03:13;11.57;;;10.00;;
3052;SDS011;1536;51.098;6.414;2022-08-19T00:05:40;9.67;;;8.80;;
3052;SDS011;1536;51.098;6.414;2022-08-19T00:08:08;11.73;;;10.53;;
3052;SDS011;1536;51.098;6.414;2022-08-19T00:10:35;10.30;;;9.27;;
3052;SDS011;1536;51.098;6.414;2022-08-19T00:13:02;10.60;;;9.13;;
3052;SDS011;1536;51.098;6.414;2022-08-19T00:15:29;10.70;;;9.70;;
3052;SDS011;1536;51.098;6.414;2022-08-19T00:17:56;10.50;;;9.50;;
3052;SDS011;1536;51.098;6.414;2022-08-19T00:20:23;12.10;;;10.87;;
3052;SDS011;1536;51.098;6.414;2022-08-19T00:22:50;11.40;;;10.30;;
3052;SDS011;1536;51.098;6.414;2022-08-19T00:25:19;11.07;;;10.07;;
3052;SDS011;1536;51.098;6.414;2022-08-19T00:27:45;12.10;;;11.00;;
3052;SDS011;1536;51.098;6.414;2022-08-19T00:30:12;9.57;;;8.77;;
3052;SDS011;1536;51.098;6.414;2022-08-19T00:32:39;11.17;;;10.27;;
3052;SDS011;1536;51.098;6.414;2022-08-19T00:35:07;11.70;;;10.53;;
3052;SDS011;1536;51.098;6.414;2022-08-19T00:37:34;10.57;;;9.67;;
3052;SDS011;1536;51.098;6.414;2022-08-19T00:40:04;12.03;;;10.97;;
3052;SDS011;1536;51.098;6.414;2022-08-19T00:42:34;12.60;;;10.60;;
3052;SDS011;1536;51.098;6.414;2022-08-19T00:45:02;11.43;;;10.37;;
3052;SDS011;1536;51.098;6.414;2022-08-19T00:47:36;13.37;;;11.03;;
3052;SDS011;1536;51.098;6.414;2022-08-19T00:50:03;11.77;;;10.70;;
3052;SDS011;1536;51.098;6.414;2022-08-19T00:52:32;11.67;;;10.67;;
3052;SDS011;1536;51.098;6.414;2022-08-19T00:55:03;13.40;;;12.10;;
3052;SDS011;1536;51.098;6.414;2022-08-19T00:57:36;13.33;;;12.03;;
3052;SDS011;1536;51.098;6.414;2022-08-19T01:00:07;13.50;;;12.20;;
3052;SDS011;1536;51.098;6.414;2022-08-19T01:02:37;14.40;;;12.37;;
3052;SDS011;1536;51.098;6.414;2022-08-19T01:05:05;12.70;;;11.50;;
3052;SDS011;1536;51.098;6.414;2022-08-19T01:07:35;12.07;;;10.87;;
3052;SDS011;1536;51.098;6.414;2022-08-19T01:10:05;12.47;;;11.27;;
3052;SDS011;1536;51.098;6.414;2022-08-19T01:12:36;12.60;;;11.40;;
3052;SDS011;1536;51.098;6.414;2022-08-19T01:15:04;12.53;;;11.33;;
3052;SDS011;1536;51.098;6.414;2022-08-19T01:17:32;11.47;;;10.33;;
3052;SDS011;1536;51.098;6.414;2022-08-19T01:20:00;12.40;;;11.30;;
3052;SDS011;1536;51.098;6.414;2022-08-19T01:22:29;12.27;;;11.07;;
3052;SDS011;1536;51.098;6.414;2022-08-19T01:24:58;11.70;;;10.70;;
3052;SDS011;1536;51.098;6.414;2022-08-19T01:27:25;12.63;;;11.43;;
3052;SDS011;1536;51.098;6.414;2022-08-19T01:29:52;13.20;;;12.00;;
3052;SDS011;1536;51.098;6.414;2022-08-19T01:32:18;13.20;;;12.00;;
3052;SDS011;1536;51.098;6.414;2022-08-19T01:34:45;14.97;;;13.57;;
3052;SDS011;1536;51.098;6.414;2022-08-19T01:37:12;13.93;;;12.67;;
3052;SDS011;1536;51.098;6.414;2022-08-19T01:39:42;13.47;;;12.17;;
3052;SDS011;1536;51.098;6.414;2022-08-19T01:42:09;13.20;;;12.10;;
3052;SDS011;1536;51.098;6.414;2022-08-19T01:44:37;12.80;;;11.80;;
3052;SDS011;1536;51.098;6.414;2022-08-19T01:47:05;12.90;;;11.43;;
3052;SDS011;1536;51.098;6.414;2022-08-19T01:49:34;12.53;;;11.50;;
3052;SDS011;1536;51.098;6.414;2022-08-19T01:52:03;12.60;;;11.50;;
3052;SDS011;1536;51.098;6.414;2022-08-19T01:54:31;13.83;;;12.50;;
3052;SDS011;1536;51.098;6.414;2022-08-19T01:57:01;13.53;;;12.33;;
3052;SDS011;1536;51.098;6.414;2022-08-19T01:59:29;13.90;;;12.50;;
3052;SDS011;1536;51.098;6.414;2022-08-19T02:01:57;15.03;;;13.50;;
3052;SDS011;1536;51.098;6.414;2022-08-19T02:04:24;15.83;;;14.40;;
3052;SDS011;1536;51.098;6.414;2022-08-19T02:06:52;15.60;;;14.20;;
3052;SDS011;1536;51.098;6.414;2022-08-19T02:09:18;16.13;;;14.63;;
3052;SDS011;1536;51.098;6.414;2022-08-19T02:11:45;18.57;;;16.77;;
3052;SDS011;1536;51.098;6.414;2022-08-19T02:14:14;19.10;;;17.30;;
3052;SDS011;1536;51.098;6.414;2022-08-19T02:16:40;24.40;;;20.30;;
3052;SDS011;1536;51.098;6.414;2022-08-19T02:19:07;22.87;;;20.30;;
3052;SDS011;1536;51.098;6.414;2022-08-19T02:21:35;21.00;;;18.80;;
3052;SDS011;1536;51.098;6.414;2022-08-19T02:24:02;22.53;;;20.23;;
3052;SDS011;1536;51.098;6.414;2022-08-19T02:26:29;26.20;;;23.57;;
3052;SDS011;1536;51.098;6.414;2022-08-19T02:28:57;25.87;;;23.37;;
3052;SDS011;1536;51.098;6.414;2022-08-19T02:31:26;28.60;;;25.70;;
3052;SDS011;1536;51.098;6.414;2022-08-19T02:33:53;27.90;;;25.00;;
3052;SDS011;1536;51.098;6.414;2022-08-19T02:36:21;29.30;;;25.33;;
3052;SDS011;1536;51.098;6.414;2022-08-19T02:38:48;29.07;;;26.07;;
3052;SDS011;1536;51.098;6.414;2022-08-19T02:41:15;29.90;;;26.80;;
3052;SDS011;1536;51.098;6.414;2022-08-19T02:43:43;29.00;;;26.23;;
3052;SDS011;1536;51.098;6.414;2022-08-19T02:46:12;28.87;;;25.83;;
3052;SDS011;1536;51.098;6.414;2022-08-19T02:48:44;29.67;;;26.73;;
3052;SDS011;1536;51.098;6.414;2022-08-19T02:51:15;27.10;;;24.50;;
3052;SDS011;1536;51.098;6.414;2022-08-19T02:53:42;28.70;;;25.90;;
3052;SDS011;1536;51.098;6.414;2022-08-19T02:56:09;29.13;;;26.43;;
3052;SDS011;1536;51.098;6.414;2022-08-19T02:58:36;29.67;;;26.87;;
3052;SDS011;1536;51.098;6.414;2022-08-19T03:01:03;31.77;;;28.73;;
3052;SDS011;1536;51.098;6.414;2022-08-19T03:03:30;32.13;;;28.70;;
3052;SDS011;1536;51.098;6.414;2022-08-19T03:06:09;33.43;;;30.00;;
3052;SDS011;1536;51.098;6.414;2022-08-19T03:08:38;30.50;;;27.37;;
3052;SDS011;1536;51.098;6.414;2022-08-19T03:11:12;33.67;;;30.30;;
3052;SDS011;1536;51.098;6.414;2022-08-19T03:13:39;36.70;;;33.00;;
3052;SDS011;1536;51.098;6.414;2022-08-19T03:16:08;34.53;;;31.13;;
3052;SDS011;1536;51.098;6.414;2022-08-19T03:18:35;36.90;;;33.07;;
3052;SDS011;1536;51.098;6.414;2022-08-19T03:21:02;38.27;;;34.50;;
3052;SDS011;1536;51.098;6.414;2022-08-19T03:23:31;40.30;;;36.00;;
3052;SDS011;1536;51.098;6.414;2022-08-19T03:25:58;42.23;;;37.97;;
3052;SDS011;1536;51.098;6.414;2022-08-19T03:28:29;43.30;;;38.93;;
3052;SDS011;1536;51.098;6.414;2022-08-19T03:30:58;42.27;;;37.83;;
3052;SDS011;1536;51.098;6.414;2022-08-19T03:33:26;41.73;;;37.60;;
3052;SDS011;1536;51.098;6.414;2022-08-19T03:36:00;41.10;;;36.80;;
3052;SDS011;1536;51.098;6.414;2022-08-19T03:38:36;43.30;;;38.73;;
3052;SDS011;1536;51.098;6.414;2022-08-19T03:41:06;43.00;;;38.37;;
3052;SDS011;1536;51.098;6.414;2022-08-19T03:43:36;42.37;;;38.30;;
3052;SDS011;1536;51.098;6.414;2022-08-19T03:46:04;42.63;;;37.20;;
3052;SDS011;1536;51.098;6.414;2022-08-19T03:48:34;42.57;;;38.17;;
3052;SDS011;1536;51.098;6.414;2022-08-19T03:51:02;40.73;;;36.67;;
3052;SDS011;1536;51.098;6.414;2022-08-19T03:53:29;43.73;;;39.20;;
3052;SDS011;1536;51.098;6.414;2022-08-19T03:55:58;42.80;;;38.30;;
3052;SDS011;1536;51.098;6.414;2022-08-19T03:58:25;43.87;;;39.53;;
3052;SDS011;1536;51.098;6.414;2022-08-19T04:00:53;43.73;;;39.23;;
3052;SDS011;1536;51.098;6.414;2022-08-19T04:03:21;44.37;;;39.83;;
3052;SDS011;1536;51.098;6.414;2022-08-19T04:05:49;42.87;;;38.60;;
3052;SDS011;1536;51.098;6.414;2022-08-19T04:08:16;42.70;;;38.50;;
3052;SDS011;1536;51.098;6.414;2022-08-19T04:10:44;42.00;;;37.77;;
3052;SDS011;1536;51.098;6.414;2022-08-19T04:13:12;43.60;;;39.23;;
3052;SDS011;1536;51.098;6.414;2022-08-19T04:15:39;43.07;;;38.80;;
3052;SDS011;1536;51.098;6.414;2022-08-19T04:18:07;41.70;;;37.60;;
3052;SDS011;1536;51.098;6.414;2022-08-19T04:20:40;42.33;;;38.13;;
3052;SDS011;1536;51.098;6.414;2022-08-19T04:23:08;42.30;;;37.97;;
3052;SDS011;1536;51.098;6.414;2022-08-19T04:25:36;42.10;;;38.00;;
3052;SDS011;1536;51.098;6.414;2022-08-19T04:28:04;40.33;;;36.10;;
3052;SDS011;1536;51.098;6.414;2022-08-19T04:30:37;42.07;;;37.77;;
3052;SDS011;1536;51.098;6.414;2022-08-19T04:33:06;40.03;;;35.80;;
3052;SDS011;1536;51.098;6.414;2022-08-19T04:35:37;40.27;;;36.03;;
3052;SDS011;1536;51.098;6.414;2022-08-19T04:38:05;39.80;;;35.17;;
3052;SDS011;1536;51.098;6.414;2022-08-19T04:40:32;40.73;;;36.53;;
3052;SDS011;1536;51.098;6.414;2022-08-19T04:43:17;39.93;;;35.67;;
3052;SDS011;1536;51.098;6.414;2022-08-19T04:45:45;39.10;;;35.10;;
3052;SDS011;1536;51.098;6.414;2022-08-19T04:48:12;39.53;;;35.33;;
3052;SDS011;1536;51.098;6.414;2022-08-19T04:50:40;38.37;;;34.27;;
3052;SDS011;1536;51.098;6.414;2022-08-19T04:53:08;40.50;;;36.30;;
3052;SDS011;1536;51.098;6.414;2022-08-19T04:55:38;39.40;;;35.40;;
3052;SDS011;1536;51.098;6.414;2022-08-19T04:58:06;39.90;;;34.73;;
3052;SDS011;1536;51.098;6.414;2022-08-19T05:00:37;41.20;;;36.80;;
3052;SDS011;1536;51.098;6.414;2022-08-19T05:03:06;43.00;;;38.60;;
3052;SDS011;1536;51.098;6.414;2022-08-19T05:05:33;39.00;;;35.10;;
3052;SDS011;1536;51.098;6.414;2022-08-19T05:08:04;40.90;;;36.43;;
3052;SDS011;1536;51.098;6.414;2022-08-19T05:10:30;40.07;;;35.77;;
3052;SDS011;1536;51.098;6.414;2022-08-19T05:12:57;42.17;;;37.67;;
3052;SDS011;1536;51.098;6.414;2022-08-19T05:15:24;39.83;;;35.70;;
3052;SDS011;1536;51.098;6.414;2022-08-19T05:17:51;40.90;;;36.53;;
3052;SDS011;1536;51.098;6.414;2022-08-19T05:20:48;38.53;;;34.30;;
3052;SDS011;1536;51.098;6.414;2022-08-19T05:23:32;41.27;;;36.93;;
3052;SDS011;1536;51.098;6.414;2022-08-19T05:25:59;39.03;;;34.93;;
3052;SDS011;1536;51.098;6.414;2022-08-19T05:28:26;40.37;;;36.07;;
3052;SDS011;1536;51.098;6.414;2022-08-19T05:30:53;42.67;;;38.10;;
3052;SDS011;1536;51.098;6.414;2022-08-19T05:33:20;41.17;;;36.77;;
3052;SDS011;1536;51.098;6.414;2022-08-19T05:35:50;41.70;;;37.13;;
3052;SDS011;1536;51.098;6.414;2022-08-19T05:38:17;42.43;;;37.83;;
3052;SDS011;1536;51.098;6.414;2022-08-19T05:40:44;41.77;;;36.53;;
3052;SDS011;1536;51.098;6.414;2022-08-19T05:43:12;41.20;;;35.20;;
3052;SDS011;1536;51.098;6.414;2022-08-19T05:45:41;45.17;;;38.00;;
3052;SDS011;1536;51.098;6.414;2022-08-19T05:48:08;40.80;;;36.40;;
3052;SDS011;1536;51.098;6.414;2022-08-19T05:50:37;42.73;;;38.23;;
3052;SDS011;1536;51.098;6.414;2022-08-19T05:53:05;42.87;;;38.47;;
3052;SDS011;1536;51.098;6.414;2022-08-19T05:55:33;43.80;;;37.23;;
3052;SDS011;1536;51.098;6.414;2022-08-19T05:58:02;49.00;;;40.73;;
3052;SDS011;1536;51.098;6.414;2022-08-19T06:00:29;43.30;;;38.70;;
3052;SDS011;1536;51.098;6.414;2022-08-19T06:02:56;43.60;;;38.90;;
3052;SDS011;1536;51.098;6.414;2022-08-19T06:05:24;45.40;;;39.37;;
3052;SDS011;1536;51.098;6.414;2022-08-19T06:07:51;47.13;;;40.97;;
3052;SDS011;1536;51.098;6.414;2022-08-19T06:10:19;48.17;;;38.43;;
3052;SDS011;1536;51.098;6.414;2022-08-19T06:12:47;47.93;;;39.27;;
3052;SDS011;1536;51.098;6.414;2022-08-19T06:15:14;49.33;;;41.90;;
3052;SDS011;1536;51.098;6.414;2022-08-19T06:17:41;49.60;;;41.10;;
3052;SDS011;1536;51.098;6.414;2022-08-19T06:20:11;49.43;;;41.37;;
3052;SDS011;1536;51.098;6.414;2022-08-19T06:22:39;47.10;;;42.00;;
3052;SDS011;1536;51.098;6.414;2022-08-19T06:25:08;51.37;;;43.40;;
3052;SDS011;1536;51.098;6.414;2022-08-19T06:27:36;52.80;;;42.50;;
3052;SDS011;1536;51.098;6.414;2022-08-19T06:30:05;49.00;;;42.10;;
3052;SDS011;1536;51.098;6.414;2022-08-19T06:32:32;47.60;;;42.50;;
3052;SDS011;1536;51.098;6.414;2022-08-19T06:34:59;47.57;;;40.70;;
3052;SDS011;1536;51.098;6.414;2022-08-19T06:37:26;49.40;;;41.60;;
3052;SDS011;1536;51.098;6.414;2022-08-19T06:39:52;50.03;;;41.67;;
3052;SDS011;1536;51.098;6.414;2022-08-19T06:42:19;52.23;;;43.70;;
3052;SDS011;1536;51.098;6.414;2022-08-19T06:44:47;59.73;;;45.50;;
3052;SDS011;1536;51.098;6.414;2022-08-19T06:47:17;55.47;;;44.70;;
3052;SDS011;1536;51.098;6.414;2022-08-19T06:49:45;53.30;;;42.33;;
3052;SDS011;1536;51.098;6.414;2022-08-19T06:52:12;54.80;;;45.00;;
3052;SDS011;1536;51.098;6.414;2022-08-19T06:54:39;63.97;;;46.50;;
3052;SDS011;1536;51.098;6.414;2022-08-19T06:57:07;55.50;;;44.77;;
3052;SDS011;1536;51.098;6.414;2022-08-19T06:59:39;61.20;;;44.67;;
3052;SDS011;1536;51.098;6.414;2022-08-19T07:02:07;57.03;;;44.87;;
3052;SDS011;1536;51.098;6.414;2022-08-19T07:04:34;58.27;;;44.37;;
3052;SDS011;1536;51.098;6.414;2022-08-19T07:07:04;57.13;;;44.50;;
3052;SDS011;1536;51.098;6.414;2022-08-19T07:09:32;58.27;;;44.67;;
3052;SDS011;1536;51.098;6.414;2022-08-19T07:11:59;54.30;;;42.03;;
3052;SDS011;1536;51.098;6.414;2022-08-19T07:14:26;58.70;;;42.50;;
3052;SDS011;1536;51.098;6.414;2022-08-19T07:16:54;53.80;;;41.17;;
3052;SDS011;1536;51.098;6.414;2022-08-19T07:19:25;50.03;;;38.53;;
3052;SDS011;1536;51.098;6.414;2022-08-19T07:21:53;56.03;;;40.83;;
3052;SDS011;1536;51.098;6.414;2022-08-19T07:24:21;41.90;;;34.57;;
3052;SDS011;1536;51.098;6.414;2022-08-19T07:26:50;45.80;;;35.60;;
3052;SDS011;1536;51.098;6.414;2022-08-19T07:29:18;46.07;;;35.97;;
3052;SDS011;1536;51.098;6.414;2022-08-19T07:31:48;46.83;;;34.37;;
3052;SDS011;1536;51.098;6.414;2022-08-19T07:34:16;47.00;;;37.60;;
3052;SDS011;1536;51.098;6.414;2022-08-19T07:36:44;50.00;;;37.73;;
3052;SDS011;1536;51.098;6.414;2022-08-19T07:39:13;41.90;;;34.97;;
3052;SDS011;1536;51.098;6.414;2022-08-19T07:41:41;39.40;;;33.50;;
3052;SDS011;1536;51.098;6.414;2022-08-19T07:44:09;43.83;;;31.73;;
3052;SDS011;1536;51.098;6.414;2022-08-19T07:46:38;40.20;;;32.20;;
3052;SDS011;1536;51.098;6.414;2022-08-19T07:49:08;36.73;;;28.87;;
3052;SDS011;1536;51.098;6.414;2022-08-19T07:51:42;35.40;;;27.43;;
3052;SDS011;1536;51.098;6.414;2022-08-19T07:54:10;38.73;;;29.00;;
3052;SDS011;1536;51.098;6.414;2022-08-19T07:56:37;31.77;;;27.07;;
3052;SDS011;1536;51.098;6.414;2022-08-19T07:59:04;35.57;;;27.90;;
3052;SDS011;1536;51.098;6.414;2022-08-19T08:01:32;37.27;;;27.00;;
3052;SDS011;1536;51.098;6.414;2022-08-19T08:03:59;37.43;;;26.73;;
3052;SDS011;1536;51.098;6.414;2022-08-19T08:06:43;32.83;;;28.10;;
3052;SDS011;1536;51.098;6.414;2022-08-19T08:09:31;33.20;;;29.03;;
3052;SDS011;1536;51.098;6.414;2022-08-19T08:12:00;30.37;;;26.00;;
3052;SDS011;1536;51.098;6.414;2022-08-19T08:14:33;33.13;;;28.40;;
3052;SDS011;1536;51.098;6.414;2022-08-19T08:17:01;32.97;;;25.83;;
3052;SDS011;1536;51.098;6.414;2022-08-19T08:19:29;30.20;;;25.40;;
3052;SDS011;1536;51.098;6.414;2022-08-19T08:21:56;25.80;;;23.03;;
3052;SDS011;1536;51.098;6.414;2022-08-19T08:24:25;27.53;;;20.77;;
3052;SDS011;1536;51.098;6.414;2022-08-19T08:26:54;24.13;;;18.30;;
3052;SDS011;1536;51.098;6.414;2022-08-19T08:29:22;22.53;;;15.20;;
3052;SDS011;1536;51.098;6.414;2022-08-19T08:31:49;25.30;;;16.03;;
3052;SDS011;1536;51.098;6.414;2022-08-19T08:34:16;22.03;;;15.50;;
3052;SDS011;1536;51.098;6.414;2022-08-19T08:36:43;20.73;;;14.97;;
3052;SDS011;1536;51.098;6.414;2022-08-19T08:39:12;19.07;;;15.33;;
3052;SDS011;1536;51.098;6.414;2022-08-19T08:41:44;18.53;;;13.03;;
3052;SDS011;1536;51.098;6.414;2022-08-19T08:44:20;17.77;;;13.50;;
3052;SDS011;1536;51.098;6.414;2022-08-19T08:46:49;18.87;;;14.00;;
3052;SDS011;1536;51.098;6.414;2022-08-19T08:49:26;18.47;;;13.43;;
3052;SDS011;1536;51.098;6.414;2022-08-19T08:51:59;15.53;;;13.40;;
3052;SDS011;1536;51.098;6.414;2022-08-19T08:54:30;13.30;;;11.20;;
3052;SDS011;1536;51.098;6.414;2022-08-19T08:57:04;15.83;;;12.13;;
3052;SDS011;1536;51.098;6.414;2022-08-19T08:59:37;18.20;;;12.87;;
3052;SDS011;1536;51.098;6.414;2022-08-19T09:02:06;16.77;;;12.77;;
3052;SDS011;1536;51.098;6.414;2022-08-19T09:04:34;17.10;;;13.57;;
3052;SDS011;1536;51.098;6.414;2022-08-19T09:07:08;18.50;;;14.73;;
3052;SDS011;1536;51.098;6.414;2022-08-19T09:09:41;17.30;;;14.33;;
3052;SDS011;1536;51.098;6.414;2022-08-19T09:12:14;17.77;;;14.37;;
3052;SDS011;1536;51.098;6.414;2022-08-19T09:17:33;20.70;;;18.00;;
3052;SDS011;1536;51.098;6.414;2022-08-19T09:20:02;22.63;;;20.40;;
3052;SDS011;1536;51.098;6.414;2022-08-19T09:22:32;21.70;;;18.70;;
3052;SDS011;1536;51.098;6.414;2022-08-19T09:25:00;24.87;;;20.40;;
3052;SDS011;1536;51.098;6.414;2022-08-19T09:27:27;27.43;;;18.77;;
3052;SDS011;1536;51.098;6.414;2022-08-19T09:29:55;21.00;;;17.00;;
3052;SDS011;1536;51.098;6.414;2022-08-19T09:32:23;20.50;;;17.17;;
3052;SDS011;1536;51.098;6.414;2022-08-19T09:34:51;24.07;;;17.63;;
3052;SDS011;1536;51.098;6.414;2022-08-19T09:37:19;23.23;;;16.40;;
3052;SDS011;1536;51.098;6.414;2022-08-19T09:39:46;18.23;;;16.27;;
3052;SDS011;1536;51.098;6.414;2022-08-19T09:42:13;17.93;;;15.90;;
3052;SDS011;1536;51.098;6.414;2022-08-19T09:44:40;19.50;;;16.03;;
3052;SDS011;1536;51.098;6.414;2022-08-19T09:47:08;22.63;;;15.63;;
3052;SDS011;1536;51.098;6.414;2022-08-19T09:49:38;18.63;;;14.43;;
3052;SDS011;1536;51.098;6.414;2022-08-19T09:52:07;15.23;;;13.23;;
3052;SDS011;1536;51.098;6.414;2022-08-19T09:54:35;15.90;;;13.40;;
3052;SDS011;1536;51.098;6.414;2022-08-19T09:57:02;15.73;;;13.80;;
3052;SDS011;1536;51.098;6.414;2022-08-19T09:59:29;16.63;;;14.90;;
3052;SDS011;1536;51.098;6.414;2022-08-19T10:01:56;14.93;;;13.27;;
3052;SDS011;1536;51.098;6.414;2022-08-19T10:04:23;17.00;;;14.23;;
3052;SDS011;1536;51.098;6.414;2022-08-19T10:07:12;20.73;;;14.30;;
3052;SDS011;1536;51.098;6.414;2022-08-19T10:09:39;14.57;;;13.17;;
3052;SDS011;1536;51.098;6.414;2022-08-19T10:12:07;17.47;;;14.93;;
3052;SDS011;1536;51.098;6.414;2022-08-19T10:14:34;15.63;;;14.03;;
3052;SDS011;1536;51.098;6.414;2022-08-19T10:17:01;15.80;;;14.10;;
3052;SDS011;1536;51.098;6.414;2022-08-19T10:19:28;14.90;;;11.90;;
3052;SDS011;1536;51.098;6.414;2022-08-19T10:22:01;13.03;;;11.60;;
3052;SDS011;1536;51.098;6.414;2022-08-19T10:24:30;15.00;;;12.20;;
3052;SDS011;1536;51.098;6.414;2022-08-19T10:26:58;12.63;;;10.70;;
3052;SDS011;1536;51.098;6.414;2022-08-19T10:29:28;13.43;;;10.80;;
3052;SDS011;1536;51.098;6.414;2022-08-19T10:31:56;13.10;;;10.87;;
3052;SDS011;1536;51.098;6.414;2022-08-19T10:34:25;16.10;;;12.83;;
3052;SDS011;1536;51.098;6.414;2022-08-19T10:36:52;16.43;;;14.73;;
3052;SDS011;1536;51.098;6.414;2022-08-19T10:39:18;16.13;;;14.43;;
3052;SDS011;1536;51.098;6.414;2022-08-19T10:41:47;18.00;;;13.90;;
3052;SDS011;1536;51.098;6.414;2022-08-19T10:44:13;17.63;;;14.83;;
3052;SDS011;1536;51.098;6.414;2022-08-19T10:46:42;17.00;;;14.00;;
3052;SDS011;1536;51.098;6.414;2022-08-19T10:49:10;15.33;;;13.73;;
3052;SDS011;1536;51.098;6.414;2022-08-19T10:51:38;17.70;;;15.80;;
3052;SDS011;1536;51.098;6.414;2022-08-19T10:54:23;19.23;;;15.17;;
3052;SDS011;1536;51.098;6.414;2022-08-19T10:57:12;19.23;;;13.90;;
3052;SDS011;1536;51.098;6.414;2022-08-19T10:59:38;15.63;;;13.70;;
3052;SDS011;1536;51.098;6.414;2022-08-19T11:02:07;16.50;;;14.37;;
3052;SDS011;1536;51.098;6.414;2022-08-19T11:04:35;14.77;;;13.27;;
3052;SDS011;1536;51.098;6.414;2022-08-19T11:07:03;14.17;;;12.53;;
3052;SDS011;1536;51.098;6.414;2022-08-19T11:09:31;14.97;;;11.47;;
3052;SDS011;1536;51.098;6.414;2022-08-19T11:12:05;13.57;;;12.20;;
3052;SDS011;1536;51.098;6.414;2022-08-19T11:14:34;13.17;;;11.77;;
3052;SDS011;1536;51.098;6.414;2022-08-19T11:17:02;12.77;;;11.47;;
3052;SDS011;1536;51.098;6.414;2022-08-19T11:19:31;12.90;;;11.50;;
3052;SDS011;1536;51.098;6.414;2022-08-19T11:21:59;13.20;;;11.80;;
3052;SDS011;1536;51.098;6.414;2022-08-19T11:24:27;14.00;;;10.60;;
3052;SDS011;1536;51.098;6.414;2022-08-19T11:26:58;10.47;;;9.40;;
3052;SDS011;1536;51.098;6.414;2022-08-19T11:29:29;10.70;;;9.60;;
3052;SDS011;1536;51.098;6.414;2022-08-19T11:31:58;10.60;;;9.53;;
3052;SDS011;1536;51.098;6.414;2022-08-19T11:34:26;10.27;;;9.10;;
3052;SDS011;1536;51.098;6.414;2022-08-19T11:36:54;14.13;;;9.40;;
3052;SDS011;1536;51.098;6.414;2022-08-19T11:39:23;13.60;;;10.10;;
3052;SDS011;1536;51.098;6.414;2022-08-19T11:41:51;10.80;;;9.90;;
3052;SDS011;1536;51.098;6.414;2022-08-19T11:44:18;14.37;;;10.90;;
3052;SDS011;1536;51.098;6.414;2022-08-19T11:46:49;14.47;;;10.03;;
3052;SDS011;1536;51.098;6.414;2022-08-19T11:49:21;10.27;;;9.27;;
3052;SDS011;1536;51.098;6.414;2022-08-19T11:51:48;11.40;;;9.20;;
3052;SDS011;1536;51.098;6.414;2022-08-19T11:54:16;9.70;;;8.80;;
3052;SDS011;1536;51.098;6.414;2022-08-19T11:56:43;10.97;;;8.27;;
3052;SDS011;1536;51.098;6.414;2022-08-19T11:59:12;9.67;;;8.77;;
3052;SDS011;1536;51.098;6.414;2022-08-19T12:01:39;9.73;;;8.80;;
3052;SDS011;1536;51.098;6.414;2022-08-19T12:04:07;9.80;;;8.73;;
3052;SDS011;1536;51.098;6.414;2022-08-19T12:06:36;11.00;;;9.90;;
3052;SDS011;1536;51.098;6.414;2022-08-19T12:09:06;11.77;;;9.50;;
3052;SDS011;1536;51.098;6.414;2022-08-19T12:11:35;9.37;;;8.50;;
3052;SDS011;1536;51.098;6.414;2022-08-19T12:14:03;11.30;;;9.73;;
3052;SDS011;1536;51.098;6.414;2022-08-19T12:16:31;10.53;;;9.50;;
3052;SDS011;1536;51.098;6.414;2022-08-19T12:18:58;9.60;;;8.63;;
3052;SDS011;1536;51.098;6.414;2022-08-19T12:21:28;9.00;;;8.20;;
3052;SDS011;1536;51.098;6.414;2022-08-19T12:23:58;7.43;;;6.73;;
3052;SDS011;1536;51.098;6.414;2022-08-19T12:26:26;8.60;;;6.67;;
3052;SDS011;1536;51.098;6.414;2022-08-19T12:28:56;8.87;;;6.73;;
3052;SDS011;1536;51.098;6.414;2022-08-19T12:31:24;9.40;;;7.27;;
3052;SDS011;1536;51.098;6.414;2022-08-19T12:33:51;9.60;;;8.30;;
3052;SDS011;1536;51.098;6.414;2022-08-19T12:36:18;9.47;;;7.83;;
3052;SDS011;1536;51.098;6.414;2022-08-19T12:38:46;12.50;;;6.33;;
3052;SDS011;1536;51.098;6.414;2022-08-19T12:41:15;6.23;;;5.63;;
3052;SDS011;1536;51.098;6.414;2022-08-19T12:43:43;7.13;;;5.73;;
3052;SDS011;1536;51.098;6.414;2022-08-19T12:46:10;9.13;;;5.90;;
3052;SDS011;1536;51.098;6.414;2022-08-19T12:48:38;8.23;;;6.57;;
3052;SDS011;1536;51.098;6.414;2022-08-19T12:51:07;5.50;;;5.00;;
3052;SDS011;1536;51.098;6.414;2022-08-19T12:53:35;5.90;;;5.30;;
3052;SDS011;1536;51.098;6.414;2022-08-19T12:56:02;5.43;;;4.93;;
3052;SDS011;1536;51.098;6.414;2022-08-19T12:58:31;10.73;;;5.27;;
3052;SDS011;1536;51.098;6.414;2022-08-19T13:00:59;8.43;;;5.47;;
3052;SDS011;1536;51.098;6.414;2022-08-19T13:03:31;5.97;;;5.00;;
3052;SDS011;1536;51.098;6.414;2022-08-19T13:05:58;8.33;;;6.23;;
3052;SDS011;1536;51.098;6.414;2022-08-19T13:08:25;5.50;;;5.00;;
3052;SDS011;1536;51.098;6.414;2022-08-19T13:10:51;10.33;;;5.67;;
3052;SDS011;1536;51.098;6.414;2022-08-19T13:13:18;4.50;;;4.10;;
3052;SDS011;1536;51.098;6.414;2022-08-19T13:15:46;5.50;;;5.00;;
3052;SDS011;1536;51.098;6.414;2022-08-19T13:18:14;5.00;;;4.60;;
3052;SDS011;1536;51.098;6.414;2022-08-19T13:20:42;4.90;;;4.60;;
3052;SDS011;1536;51.098;6.414;2022-08-19T13:23:09;5.27;;;4.00;;
3052;SDS011;1536;51.098;6.414;2022-08-19T13:25:36;5.97;;;4.17;;
3052;SDS011;1536;51.098;6.414;2022-08-19T13:28:03;4.87;;;4.57;;
3052;SDS011;1536;51.098;6.414;2022-08-19T13:30:31;4.80;;;3.23;;
3052;SDS011;1536;51.098;6.414;2022-08-19T13:33:17;4.00;;;3.60;;
3052;SDS011;1536;51.098;6.414;2022-08-19T13:35:45;3.30;;;3.10;;
3052;SDS011;1536;51.098;6.414;2022-08-19T13:38:15;5.70;;;3.93;;
3052;SDS011;1536;51.098;6.414;2022-08-19T13:40:43;5.13;;;4.50;;
3052;SDS011;1536;51.098;6.414;2022-08-19T13:43:10;5.17;;;4.77;;
3052;SDS011;1536;51.098;6.414;2022-08-19T13:45:36;13.00;;;4.20;;
3052;SDS011;1536;51.098;6.414;2022-08-19T13:48:04;6.83;;;3.60;;
3052;SDS011;1536;51.098;6.414;2022-08-19T13:50:35;7.80;;;3.83;;
3052;SDS011;1536;51.098;6.414;2022-08-19T13:53:06;5.90;;;3.37;;
3052;SDS011;1536;51.098;6.414;2022-08-19T13:55:34;4.00;;;3.60;;
3052;SDS011;1536;51.098;6.414;2022-08-19T13:58:03;4.20;;;3.83;;
3052;SDS011;1536;51.098;6.414;2022-08-19T14:00:33;4.47;;;3.90;;
3052;SDS011;1536;51.098;6.414;2022-08-19T14:03:02;7.60;;;4.00;;
3052;SDS011;1536;51.098;6.414;2022-08-19T14:05:29;4.80;;;4.13;;
3052;SDS011;1536;51.098;6.414;2022-08-19T14:07:58;4.53;;;4.13;;
3052;SDS011;1536;51.098;6.414;2022-08-19T14:10:26;4.40;;;4.00;;
3052;SDS011;1536;51.098;6.414;2022-08-19T14:12:55;6.40;;;3.70;;
3052;SDS011;1536;51.098;6.414;2022-08-19T14:15:24;6.50;;;4.63;;
3052;SDS011;1536;51.098;6.414;2022-08-19T14:17:52;6.00;;;4.27;;
3052;SDS011;1536;51.098;6.414;2022-08-19T14:20:19;4.70;;;4.27;;
3052;SDS011;1536;51.098;6.414;2022-08-19T14:22:46;6.23;;;4.07;;
3052;SDS011;1536;51.098;6.414;2022-08-19T14:25:17;6.90;;;4.27;;
3052;SDS011;1536;51.098;6.414;2022-08-19T14:27:45;6.60;;;4.80;;
3052;SDS011;1536;51.098;6.414;2022-08-19T14:30:14;5.20;;;4.00;;
3052;SDS011;1536;51.098;6.414;2022-08-19T14:32:42;4.50;;;3.93;;
3052;SDS011;1536;51.098;6.414;2022-08-19T14:35:09;4.00;;;3.60;;
3052;SDS011;1536;51.098;6.414;2022-08-19T14:37:39;6.17;;;3.47;;
3052;SDS011;1536;51.098;6.414;2022-08-19T14:40:07;5.87;;;3.80;;
3052;SDS011;1536;51.098;6.414;2022-08-19T14:42:37;3.90;;;3.40;;
3052;SDS011;1536;51.098;6.414;2022-08-19T14:45:04;4.73;;;3.53;;
3052;SDS011;1536;51.098;6.414;2022-08-19T14:47:32;4.47;;;4.07;;
3052;SDS011;1536;51.098;6.414;2022-08-19T14:49:59;4.33;;;3.20;;
3052;SDS011;1536;51.098;6.414;2022-08-19T14:52:26;4.03;;;3.00;;
3052;SDS011;1536;51.098;6.414;2022-08-19T14:54:53;6.43;;;3.10;;
3052;SDS011;1536;51.098;6.414;2022-08-19T14:57:20;3.70;;;2.93;;
3052;SDS011;1536;51.098;6.414;2022-08-19T14:59:48;3.40;;;2.90;;
3052;SDS011;1536;51.098;6.414;2022-08-19T15:02:15;3.77;;;2.80;;
3052;SDS011;1536;51.098;6.414;2022-08-19T15:04:42;4.43;;;2.80;;